Detalii statie PROACUA CEFA [00001987]

Toti senzorii

Date Temperatura solului [C]Precipitatii [mm]Voltaj baterie [mV]Leaf Wetness [Min]HC Air temperature [C]HC Relative humidity [%]Punctul de roua [C]
medieminmaxsumaultimatimpmedieminmaxmediemediemin
2019-02-21 00:00:00 0 6132 0.03 -0.68 0.96 0 0 0
2019-02-21 01:00:00 0 6122 -0.29 -0.8 0.08 0 0 0
2019-02-21 02:00:00 0 6112 -0.3 -1.07 0.33 0 0 0
2019-02-21 03:00:00 0 6112 -0.98 -1.76 0.18 0 0 0
2019-02-21 04:00:00 0 6112 -1.4 -1.81 -0.79 0 0 0
2019-02-21 05:00:00 0 6112 -1.89 -2.74 -0.97 0 0 0
2019-02-21 06:00:00 0 6112 -2.02 -2.51 -1.47 0 0 0
2019-02-21 07:00:00 0 6102 -1.89 -2.53 -1.65 0 0 0
2019-02-21 08:00:00 0 6122 -1.62 -2.16 -0.73 0 0 0
2019-02-21 09:00:00 0.2 6142 -0.16 -0.63 0.03 0 0 0
2019-02-21 10:00:00 0 6200 0.91 0 1.89 0 0 0
2019-02-21 11:00:00 0 6190 3.24 2 5.15 0 0 0
2019-02-21 12:00:00 0 6170 6.51 5.31 7.71 0 0 0
2019-02-21 13:00:00 0 6162 9.2 8.12 10.57 0 0 0
2019-02-21 14:00:00 0 6162 10.82 10.17 11.46 0 0 0
2019-02-21 15:00:00 0 6170 11 10.16 12.07 0 0 0
2019-02-21 16:00:00 0 6162 10.61 9.96 12.13 0 0 0
2019-02-21 17:00:00 0 6162 10.6 10.37 10.99 0 0 0
2019-02-21 18:00:00 0 6152 9.41 8.06 10.14 0 0 0
2019-02-21 19:00:00 0 6152 5.8 4.32 7.68 0 0 0
2019-02-21 20:00:00 0 6142 3.7 3.04 4.33 0 0 0
2019-02-21 21:00:00 0 6132 2.6 2.02 3.03 0 0 0
2019-02-21 22:00:00 0 6132 1.78 1.58 2.03 0 0 0
2019-02-21 23:00:00 0 6122 2.76 2.25 3.01 0 0 0
2019-02-22 00:00:00 0 6112 3.22 3.02 3.39 0 0 0
2019-02-22 01:00:00 0 6112 3.69 3.38 3.97 0 0 0
2019-02-22 02:00:00 0 6112 4.39 4.06 4.57 0 0 0
2019-02-22 03:00:00 1.2 6102 4.6 4.31 5.28 0 0 0
2019-02-22 04:00:00 1.8 6102 5.44 5.3 5.55 0 0 0
2019-02-22 05:00:00 1.2 6102 5.21 5.13 5.31 0 0 0
2019-02-22 06:00:00 0.2 6102 4.94 4.77 5.11 0 0 0
2019-02-22 07:00:00 0 6102 4.52 4.4 4.63 0 0 0
2019-02-22 08:00:00 0 6102 4.49 4.37 4.6 0 0 0
2019-02-22 09:00:00 0 6112 4.75 4.57 4.9 0 0 0
2019-02-22 10:00:00 0 6122 5.13 4.8 5.5 0 0 0
2019-02-22 11:00:00 0 6132 5.5 5.2 5.73 0 0 0
2019-02-22 12:00:00 0 6142 6.06 5.86 6.31 0 0 0
2019-02-22 13:00:00 0 6122 6.35 6.22 6.52 0 0 0
2019-02-22 14:00:00 0.4 6132 5.34 4.12 6.47 0 0 0
2019-02-22 15:00:00 0 6132 3.86 3.58 4.07 0 0 0
2019-02-22 16:00:00 0 6122 4.16 3.83 4.56 0 0 0
2019-02-22 17:00:00 0 6132 3.12 2.01 4.06 0 0 0
2019-02-22 18:00:00 0 6112 1.05 0.34 1.9 0 0 0
2019-02-22 19:00:00 0 6102 -0.19 -0.7 0.24 0 0 0
2019-02-22 20:00:00 0 6102 -1.18 -1.66 -0.8 0 0 0
2019-02-22 21:00:00 0 6092 -2.02 -2.33 -1.6 0 0 0
2019-02-22 22:00:00 0 6092 -2.77 -2.98 -2.5 0 0 0
2019-02-22 23:00:00 0 6092 -3.22 -3.38 -3.04 0 0 0